Terminal Aerodrome Forecast
Issued by NWS

Home | Current Version | Previous Version | Text Only | Print | Product List | Glossary On
Versions: 1 2 3 4 5 6 7 8 9 10 11 12 13 14 15 16 17 18 19 20 21 22 23 24 25 26 27 28 29
000
FTUS45 KSLC 300020 AAA
TAFSGU
TAF AMD
KSGU 300020Z 3000/3024 26007KT P6SM FEW120
      TEMPO 3000/3001 VRB20G40KT 3SM -TSRA FEW050CB BKN120
     FM300400 13005KT P6SM FEW100
     FM301800 25007KT P6SM SKC
     FM302100 25015G25KT P6SM SCT100
      AMD LTD TO CLD VIS AND WIND=

USA.gov is the U.S. government's official web portal to all federal, state and local government web resources and services.